sensor_id;sensor_type;location;lat;lon;timestamp;pressure;altitude;pressure_sealevel;temperature;humidity
19236;BME280;9752;54.270;12.470;2023-04-05T00:04:49;102658.75;;;-0.50;100.00
19236;BME280;9752;54.270;12.470;2023-04-05T00:09:56;102656.53;;;-0.42;100.00
19236;BME280;9752;54.270;12.470;2023-04-05T00:14:59;102675.38;;;-0.21;100.00
19236;BME280;9752;54.270;12.470;2023-04-05T00:20:01;102683.84;;;-0.15;100.00
19236;BME280;9752;54.270;12.470;2023-04-05T00:25:08;102680.78;;;0.01;100.00
19236;BME280;9752;54.270;12.470;2023-04-05T00:30:11;102691.88;;;0.27;100.00
19236;BME280;9752;54.270;12.470;2023-04-05T00:35:19;102683.94;;;0.51;100.00
19236;BME280;9752;54.270;12.470;2023-04-05T00:40:21;102747.16;;;0.59;100.00
19236;BME280;9752;54.270;12.470;2023-04-05T00:45:24;102752.53;;;0.68;100.00
19236;BME280;9752;54.270;12.470;2023-04-05T00:50:27;102750.19;;;0.69;100.00
19236;BME280;9752;54.270;12.470;2023-04-05T00:55:30;102749.75;;;0.79;100.00
19236;BME280;9752;54.270;12.470;2023-04-05T01:00:35;102740.88;;;0.83;100.00
19236;BME280;9752;54.270;12.470;2023-04-05T01:05:41;102740.53;;;0.87;100.00
19236;BME280;9752;54.270;12.470;2023-04-05T01:10:49;102737.47;;;0.89;100.00
19236;BME280;9752;54.270;12.470;2023-04-05T01:15:53;102742.59;;;0.89;100.00
19236;BME280;9752;54.270;12.470;2023-04-05T01:20:58;102742.03;;;1.05;100.00
19236;BME280;9752;54.270;12.470;2023-04-05T01:26:22;102741.31;;;0.93;100.00
19236;BME280;9752;54.270;12.470;2023-04-05T01:31:36;102728.56;;;0.93;100.00
19236;BME280;9752;54.270;12.470;2023-04-05T01:36:44;102727.25;;;1.09;100.00
19236;BME280;9752;54.270;12.470;2023-04-05T01:41:50;102728.25;;;1.37;100.00
19236;BME280;9752;54.270;12.470;2023-04-05T01:46:53;102718.03;;;1.37;100.00
19236;BME280;9752;54.270;12.470;2023-04-05T01:51:55;102720.34;;;1.55;100.00
19236;BME280;9752;54.270;12.470;2023-04-05T01:56:56;102714.81;;;1.72;100.00
19236;BME280;9752;54.270;12.470;2023-04-05T02:02:00;102711.16;;;1.98;100.00
19236;BME280;9752;54.270;12.470;2023-04-05T02:07:01;102701.88;;;1.78;100.00
19236;BME280;9752;54.270;12.470;2023-04-05T02:12:03;102699.09;;;1.97;100.00
19236;BME280;9752;54.270;12.470;2023-04-05T02:17:06;102686.13;;;1.68;100.00
19236;BME280;9752;54.270;12.470;2023-04-05T02:22:08;102688.34;;;1.72;100.00
19236;BME280;9752;54.270;12.470;2023-04-05T02:27:10;102676.00;;;1.82;100.00
19236;BME280;9752;54.270;12.470;2023-04-05T02:32:13;102670.63;;;2.08;100.00
19236;BME280;9752;54.270;12.470;2023-04-05T02:37:15;102669.13;;;1.95;100.00
19236;BME280;9752;54.270;12.470;2023-04-05T02:42:16;102671.69;;;2.03;100.00
19236;BME280;9752;54.270;12.470;2023-04-05T02:47:19;102671.06;;;2.25;100.00
19236;BME280;9752;54.270;12.470;2023-04-05T02:52:26;102655.69;;;2.25;100.00
19236;BME280;9752;54.270;12.470;2023-04-05T02:57:28;102654.00;;;2.11;100.00
19236;BME280;9752;54.270;12.470;2023-04-05T03:02:39;102648.34;;;2.07;100.00
19236;BME280;9752;54.270;12.470;2023-04-05T03:07:41;102645.50;;;2.32;100.00
19236;BME280;9752;54.270;12.470;2023-04-05T03:12:46;102633.44;;;2.39;100.00
19236;BME280;9752;54.270;12.470;2023-04-05T03:17:57;102628.13;;;2.30;100.00
19236;BME280;9752;54.270;12.470;2023-04-05T03:22:59;102618.00;;;2.17;100.00
19236;BME280;9752;54.270;12.470;2023-04-05T03:28:05;102611.38;;;2.05;100.00
19236;BME280;9752;54.270;12.470;2023-04-05T03:33:10;102606.28;;;2.12;100.00
19236;BME280;9752;54.270;12.470;2023-04-05T03:38:16;102600.81;;;2.09;100.00
19236;BME280;9752;54.270;12.470;2023-04-05T03:43:41;102605.91;;;2.16;100.00
19236;BME280;9752;54.270;12.470;2023-04-05T03:48:44;102605.75;;;2.14;100.00
19236;BME280;9752;54.270;12.470;2023-04-05T03:53:46;102598.63;;;2.19;100.00
19236;BME280;9752;54.270;12.470;2023-04-05T03:58:49;102582.53;;;2.13;100.00
19236;BME280;9752;54.270;12.470;2023-04-05T04:03:59;102596.56;;;2.02;100.00
19236;BME280;9752;54.270;12.470;2023-04-05T04:09:01;102583.91;;;1.97;100.00
19236;BME280;9752;54.270;12.470;2023-04-05T04:14:05;102592.13;;;1.87;100.00
19236;BME280;9752;54.270;12.470;2023-04-05T04:19:12;102584.19;;;1.71;100.00
19236;BME280;9752;54.270;12.470;2023-04-05T04:24:37;102580.09;;;1.59;100.00
19236;BME280;9752;54.270;12.470;2023-04-05T04:29:58;102586.34;;;1.33;100.00
19236;BME280;9752;54.270;12.470;2023-04-05T04:35:08;102584.28;;;1.31;100.00
19236;BME280;9752;54.270;12.470;2023-04-05T04:40:30;102596.13;;;1.23;100.00
19236;BME280;9752;54.270;12.470;2023-04-05T04:45:58;102600.66;;;1.19;100.00
19236;BME280;9752;54.270;12.470;2023-04-05T04:51:15;102602.03;;;1.29;100.00
19236;BME280;9752;54.270;12.470;2023-04-05T04:56:16;102598.97;;;1.39;100.00
19236;BME280;9752;54.270;12.470;2023-04-05T05:01:18;102611.41;;;1.43;100.00
19236;BME280;9752;54.270;12.470;2023-04-05T05:06:23;102610.97;;;1.60;100.00
19236;BME280;9752;54.270;12.470;2023-04-05T05:11:26;102616.84;;;1.66;100.00
19236;BME280;9752;54.270;12.470;2023-04-05T05:16:28;102627.13;;;1.73;100.00
19236;BME280;9752;54.270;12.470;2023-04-05T05:21:31;102633.59;;;1.84;100.00
19236;BME280;9752;54.270;12.470;2023-04-05T05:26:35;102627.94;;;1.87;100.00
19236;BME280;9752;54.270;12.470;2023-04-05T05:31:38;102637.31;;;2.01;100.00
19236;BME280;9752;54.270;12.470;2023-04-05T05:36:41;102636.94;;;1.98;100.00
19236;BME280;9752;54.270;12.470;2023-04-05T05:41:43;102635.09;;;1.97;100.00
19236;BME280;9752;54.270;12.470;2023-04-05T05:46:44;102641.06;;;2.17;100.00
19236;BME280;9752;54.270;12.470;2023-04-05T05:51:48;102631.06;;;2.40;100.00
19236;BME280;9752;54.270;12.470;2023-04-05T05:56:50;102641.75;;;2.72;100.00
19236;BME280;9752;54.270;12.470;2023-04-05T06:01:52;102641.41;;;3.05;100.00
19236;BME280;9752;54.270;12.470;2023-04-05T06:06:55;102647.47;;;3.12;100.00
19236;BME280;9752;54.270;12.470;2023-04-05T06:11:57;102641.97;;;3.38;100.00
19236;BME280;9752;54.270;12.470;2023-04-05T06:16:59;102636.03;;;3.68;100.00
19236;BME280;9752;54.270;12.470;2023-04-05T06:22:02;102629.91;;;3.96;100.00
19236;BME280;9752;54.270;12.470;2023-04-05T06:27:03;102621.06;;;4.08;100.00
19236;BME280;9752;54.270;12.470;2023-04-05T06:32:05;102614.25;;;4.16;100.00
19236;BME280;9752;54.270;12.470;2023-04-05T06:37:08;102593.94;;;4.41;100.00
19236;BME280;9752;54.270;12.470;2023-04-05T06:42:10;102590.03;;;4.75;100.00
19236;BME280;9752;54.270;12.470;2023-04-05T06:47:19;102564.97;;;4.65;100.00
19236;BME280;9752;54.270;12.470;2023-04-05T06:52:21;102548.34;;;4.93;100.00
19236;BME280;9752;54.270;12.470;2023-04-05T06:57:23;102536.75;;;4.97;100.00
19236;BME280;9752;54.270;12.470;2023-04-05T07:02:25;102520.38;;;4.80;100.00
19236;BME280;9752;54.270;12.470;2023-04-05T07:07:28;102512.00;;;5.29;100.00
19236;BME280;9752;54.270;12.470;2023-04-05T07:12:30;102502.22;;;5.65;100.00
19236;BME280;9752;54.270;12.470;2023-04-05T07:17:32;102493.88;;;5.68;100.00
19236;BME280;9752;54.270;12.470;2023-04-05T07:22:35;102469.88;;;5.76;100.00
19236;BME280;9752;54.270;12.470;2023-04-05T07:27:37;102468.44;;;5.46;100.00
19236;BME280;9752;54.270;12.470;2023-04-05T07:32:39;102459.59;;;5.60;100.00
19236;BME280;9752;54.270;12.470;2023-04-05T07:37:42;102463.94;;;5.53;100.00
19236;BME280;9752;54.270;12.470;2023-04-05T07:42:44;102461.41;;;5.77;100.00
19236;BME280;9752;54.270;12.470;2023-04-05T07:47:45;102459.03;;;5.87;100.00
19236;BME280;9752;54.270;12.470;2023-04-05T07:52:48;102459.59;;;6.25;100.00
19236;BME280;9752;54.270;12.470;2023-04-05T07:57:50;102457.53;;;6.72;100.00
19236;BME280;9752;54.270;12.470;2023-04-05T08:02:51;102455.03;;;6.98;100.00
19236;BME280;9752;54.270;12.470;2023-04-05T08:07:55;102461.59;;;6.61;100.00
19236;BME280;9752;54.270;12.470;2023-04-05T08:12:57;102445.78;;;7.00;100.00
19236;BME280;9752;54.270;12.470;2023-04-05T08:17:59;102439.13;;;7.37;100.00
19236;BME280;9752;54.270;12.470;2023-04-05T08:23:02;102431.94;;;7.00;100.00
19236;BME280;9752;54.270;12.470;2023-04-05T08:28:04;102437.44;;;7.03;100.00
19236;BME280;9752;54.270;12.470;2023-04-05T08:33:06;102425.28;;;7.80;100.00
19236;BME280;9752;54.270;12.470;2023-04-05T08:38:09;102423.13;;;7.94;100.00
19236;BME280;9752;54.270;12.470;2023-04-05T08:43:15;102425.13;;;7.88;100.00
19236;BME280;9752;54.270;12.470;2023-04-05T08:48:19;102420.91;;;7.45;100.00
19236;BME280;9752;54.270;12.470;2023-04-05T08:53:22;102423.63;;;7.55;100.00
19236;BME280;9752;54.270;12.470;2023-04-05T08:58:24;102428.41;;;8.13;100.00
19236;BME280;9752;54.270;12.470;2023-04-05T09:03:31;102418.84;;;8.03;100.00
19236;BME280;9752;54.270;12.470;2023-04-05T09:08:37;102418.88;;;7.94;100.00
19236;BME280;9752;54.270;12.470;2023-04-05T09:13:39;102412.75;;;8.84;100.00
19236;BME280;9752;54.270;12.470;2023-04-05T09:18:40;102415.63;;;8.59;100.00
19236;BME280;9752;54.270;12.470;2023-04-05T09:23:52;102409.63;;;9.16;100.00
19236;BME280;9752;54.270;12.470;2023-04-05T09:28:55;102405.78;;;8.38;100.00
19236;BME280;9752;54.270;12.470;2023-04-05T09:33:57;102406.56;;;8.46;100.00
19236;BME280;9752;54.270;12.470;2023-04-05T09:39:08;102413.25;;;8.44;100.00
19236;BME280;9752;54.270;12.470;2023-04-05T09:44:10;102414.66;;;8.68;100.00
19236;BME280;9752;54.270;12.470;2023-04-05T09:49:11;102405.44;;;9.08;100.00
19236;BME280;9752;54.270;12.470;2023-04-05T09:54:15;102405.09;;;9.32;100.00
19236;BME280;9752;54.270;12.470;2023-04-05T09:59:16;102399.25;;;8.50;100.00
19236;BME280;9752;54.270;12.470;2023-04-05T10:04:18;102398.34;;;8.41;100.00
19236;BME280;9752;54.270;12.470;2023-04-05T10:09:22;102392.84;;;9.69;100.00
19236;BME280;9752;54.270;12.470;2023-04-05T10:14:23;102377.38;;;9.90;100.00
19236;BME280;9752;54.270;12.470;2023-04-05T10:19:28;102380.69;;;9.68;100.00
19236;BME280;9752;54.270;12.470;2023-04-05T10:24:39;102379.25;;;9.43;100.00
19236;BME280;9752;54.270;12.470;2023-04-05T10:29:50;102375.78;;;10.11;100.00
19236;BME280;9752;54.270;12.470;2023-04-05T10:34:57;102376.59;;;8.94;100.00
19236;BME280;9752;54.270;12.470;2023-04-05T10:40:07;102375.53;;;8.46;100.00
19236;BME280;9752;54.270;12.470;2023-04-05T10:45:12;102372.81;;;8.35;100.00
19236;BME280;9752;54.270;12.470;2023-04-05T10:50:20;102364.50;;;8.20;100.00
19236;BME280;9752;54.270;12.470;2023-04-05T10:55:23;102361.69;;;8.09;100.00
19236;BME280;9752;54.270;12.470;2023-04-05T11:00:26;102361.47;;;7.79;100.00
19236;BME280;9752;54.270;12.470;2023-04-05T11:05:30;102358.59;;;7.76;100.00
19236;BME280;9752;54.270;12.470;2023-04-05T11:10:35;102352.06;;;7.62;100.00
19236;BME280;9752;54.270;12.470;2023-04-05T11:15:38;102352.13;;;7.19;100.00
19236;BME280;9752;54.270;12.470;2023-04-05T11:20:47;102344.41;;;7.01;100.00
19236;BME280;9752;54.270;12.470;2023-04-05T11:25:53;102338.78;;;6.97;100.00
19236;BME280;9752;54.270;12.470;2023-04-05T11:30:57;102343.34;;;6.99;100.00
19236;BME280;9752;54.270;12.470;2023-04-05T11:36:11;102344.22;;;6.82;100.00
19236;BME280;9752;54.270;12.470;2023-04-05T11:41:16;102358.16;;;6.58;100.00
19236;BME280;9752;54.270;12.470;2023-04-05T11:46:20;102351.22;;;6.66;100.00
19236;BME280;9752;54.270;12.470;2023-04-05T11:51:23;102347.38;;;6.54;100.00
19236;BME280;9752;54.270;12.470;2023-04-05T11:56:29;102346.38;;;6.95;100.00
19236;BME280;9752;54.270;12.470;2023-04-05T12:01:31;102338.31;;;7.45;100.00
19236;BME280;9752;54.270;12.470;2023-04-05T12:06:33;102343.44;;;7.62;100.00
19236;BME280;9752;54.270;12.470;2023-04-05T12:11:36;102337.84;;;7.49;100.00
19236;BME280;9752;54.270;12.470;2023-04-05T12:16:47;102333.44;;;7.93;100.00
19236;BME280;9752;54.270;12.470;2023-04-05T12:21:50;102337.47;;;8.17;100.00
19236;BME280;9752;54.270;12.470;2023-04-05T12:26:56;102336.19;;;7.40;100.00
19236;BME280;9752;54.270;12.470;2023-04-05T12:32:01;102330.25;;;7.50;100.00
19236;BME280;9752;54.270;12.470;2023-04-05T12:37:03;102328.44;;;7.94;100.00
19236;BME280;9752;54.270;12.470;2023-04-05T12:42:06;102320.41;;;7.91;100.00
19236;BME280;9752;54.270;12.470;2023-04-05T12:47:17;102323.50;;;7.78;100.00
19236;BME280;9752;54.270;12.470;2023-04-05T12:52:19;102326.16;;;7.97;100.00
19236;BME280;9752;54.270;12.470;2023-04-05T12:57:29;102323.13;;;7.93;100.00
19236;BME280;9752;54.270;12.470;2023-04-05T13:02:30;102314.38;;;8.10;100.00
19236;BME280;9752;54.270;12.470;2023-04-05T13:07:32;102313.00;;;8.69;100.00
19236;BME280;9752;54.270;12.470;2023-04-05T13:12:35;102308.41;;;8.75;100.00
19236;BME280;9752;54.270;12.470;2023-04-05T13:17:37;102298.91;;;10.11;100.00
19236;BME280;9752;54.270;12.470;2023-04-05T13:22:39;102294.22;;;11.10;100.00
19236;BME280;9752;54.270;12.470;2023-04-05T13:27:42;102291.31;;;11.92;100.00
19236;BME280;9752;54.270;12.470;2023-04-05T13:32:44;102295.66;;;12.03;100.00
19236;BME280;9752;54.270;12.470;2023-04-05T13:37:46;102295.94;;;11.42;100.00
19236;BME280;9752;54.270;12.470;2023-04-05T13:42:50;102295.34;;;10.40;100.00
19236;BME280;9752;54.270;12.470;2023-04-05T13:47:52;102308.69;;;8.78;100.00
19236;BME280;9752;54.270;12.470;2023-04-05T13:52:53;102306.19;;;8.14;100.00
19236;BME280;9752;54.270;12.470;2023-04-05T13:57:57;102302.09;;;7.62;100.00
19236;BME280;9752;54.270;12.470;2023-04-05T14:02:58;102306.44;;;6.65;100.00
19236;BME280;9752;54.270;12.470;2023-04-05T14:08:00;102300.78;;;6.35;100.00
19236;BME280;9752;54.270;12.470;2023-04-05T14:13:03;102302.06;;;6.05;100.00
19236;BME280;9752;54.270;12.470;2023-04-05T14:18:05;102302.69;;;6.11;100.00
19236;BME280;9752;54.270;12.470;2023-04-05T14:23:07;102297.28;;;6.25;100.00
19236;BME280;9752;54.270;12.470;2023-04-05T14:28:10;102289.81;;;6.11;100.00
19236;BME280;9752;54.270;12.470;2023-04-05T14:33:12;102292.72;;;6.32;100.00
19236;BME280;9752;54.270;12.470;2023-04-05T14:38:14;102284.94;;;6.91;100.00
19236;BME280;9752;54.270;12.470;2023-04-05T14:43:17;102286.78;;;7.63;100.00
19236;BME280;9752;54.270;12.470;2023-04-05T14:48:19;102287.28;;;8.24;100.00
19236;BME280;9752;54.270;12.470;2023-04-05T14:53:20;102263.69;;;9.64;100.00
19236;BME280;9752;54.270;12.470;2023-04-05T14:58:24;102256.47;;;11.36;100.00
19236;BME280;9752;54.270;12.470;2023-04-05T15:03:28;102261.97;;;9.54;100.00
19236;BME280;9752;54.270;12.470;2023-04-05T15:08:30;102257.44;;;9.51;100.00
19236;BME280;9752;54.270;12.470;2023-04-05T15:13:33;102242.78;;;12.15;100.00
19236;BME280;9752;54.270;12.470;2023-04-05T15:18:35;102247.06;;;10.52;100.00
19236;BME280;9752;54.270;12.470;2023-04-05T15:23:38;102247.59;;;10.07;100.00
19236;BME280;9752;54.270;12.470;2023-04-05T15:28:41;102234.91;;;10.51;100.00
19236;BME280;9752;54.270;12.470;2023-04-05T15:33:43;102229.16;;;11.85;100.00
19236;BME280;9752;54.270;12.470;2023-04-05T15:38:45;102252.59;;;8.87;100.00
19236;BME280;9752;54.270;12.470;2023-04-05T15:43:48;102246.09;;;9.30;100.00
19236;BME280;9752;54.270;12.470;2023-04-05T15:48:50;102223.97;;;12.53;100.00
19236;BME280;9752;54.270;12.470;2023-04-05T15:53:52;102207.38;;;13.58;100.00
19236;BME280;9752;54.270;12.470;2023-04-05T15:58:55;102207.28;;;13.82;100.00
19236;BME280;9752;54.270;12.470;2023-04-05T16:03:57;102198.63;;;15.13;100.00
19236;BME280;9752;54.270;12.470;2023-04-05T16:08:59;102198.09;;;14.39;100.00
19236;BME280;9752;54.270;12.470;2023-04-05T16:14:03;102199.00;;;14.39;100.00
19236;BME280;9752;54.270;12.470;2023-04-05T16:19:05;102183.31;;;14.78;100.00
19236;BME280;9752;54.270;12.470;2023-04-05T16:24:07;102196.59;;;13.79;100.00
19236;BME280;9752;54.270;12.470;2023-04-05T16:29:10;102187.81;;;14.67;100.00
19236;BME280;9752;54.270;12.470;2023-04-05T16:34:12;102216.00;;;12.27;100.00
19236;BME280;9752;54.270;12.470;2023-04-05T16:39:14;102190.56;;;13.66;100.00
19236;BME280;9752;54.270;12.470;2023-04-05T16:44:17;102199.44;;;12.84;100.00
19236;BME280;9752;54.270;12.470;2023-04-05T16:49:19;102214.31;;;11.50;100.00
19236;BME280;9752;54.270;12.470;2023-04-05T16:54:21;102205.47;;;12.14;100.00
19236;BME280;9752;54.270;12.470;2023-04-05T16:59:24;102202.19;;;11.06;100.00
19236;BME280;9752;54.270;12.470;2023-04-05T17:04:26;102216.28;;;9.54;100.00
19236;BME280;9752;54.270;12.470;2023-04-05T17:09:27;102216.31;;;8.96;100.00
19236;BME280;9752;54.270;12.470;2023-04-05T17:14:31;102224.09;;;7.47;100.00
19236;BME280;9752;54.270;12.470;2023-04-05T17:19:32;102219.69;;;6.49;100.00
19236;BME280;9752;54.270;12.470;2023-04-05T17:24:35;102218.19;;;5.82;100.00
19236;BME280;9752;54.270;12.470;2023-04-05T17:29:38;102220.38;;;5.28;100.00
19236;BME280;9752;54.270;12.470;2023-04-05T17:34:40;102224.25;;;4.92;100.00
19236;BME280;9752;54.270;12.470;2023-04-05T17:39:42;102224.97;;;4.50;100.00
19236;BME280;9752;54.270;12.470;2023-04-05T17:44:45;102232.00;;;4.12;100.00
19236;BME280;9752;54.270;12.470;2023-04-05T17:49:47;102225.81;;;3.87;100.00
19236;BME280;9752;54.270;12.470;2023-04-05T17:54:49;102226.56;;;3.70;100.00
19236;BME280;9752;54.270;12.470;2023-04-05T17:59:53;102235.47;;;3.58;100.00
19236;BME280;9752;54.270;12.470;2023-04-05T18:04:56;102231.91;;;3.41;100.00
19236;BME280;9752;54.270;12.470;2023-04-05T18:09:58;102245.25;;;3.23;100.00
19236;BME280;9752;54.270;12.470;2023-04-05T18:15:02;102235.88;;;3.00;100.00
19236;BME280;9752;54.270;12.470;2023-04-05T18:20:05;102240.94;;;2.77;100.00
19236;BME280;9752;54.270;12.470;2023-04-05T18:25:08;102257.88;;;2.53;100.00
19236;BME280;9752;54.270;12.470;2023-04-05T18:30:13;102256.88;;;2.30;100.00
19236;BME280;9752;54.270;12.470;2023-04-05T18:35:15;102259.13;;;1.98;100.00
19236;BME280;9752;54.270;12.470;2023-04-05T18:40:17;102266.44;;;1.66;100.00
19236;BME280;9752;54.270;12.470;2023-04-05T18:45:21;102262.41;;;1.40;100.00
19236;BME280;9752;54.270;12.470;2023-04-05T18:50:23;102274.06;;;1.09;100.00
19236;BME280;9752;54.270;12.470;2023-04-05T18:55:25;102277.25;;;0.79;100.00
19236;BME280;9752;54.270;12.470;2023-04-05T19:00:28;102276.25;;;0.57;100.00
19236;BME280;9752;54.270;12.470;2023-04-05T19:05:30;102277.13;;;0.50;100.00
19236;BME280;9752;54.270;12.470;2023-04-05T19:10:31;102276.50;;;0.38;100.00
19236;BME280;9752;54.270;12.470;2023-04-05T19:15:37;102287.84;;;0.13;100.00
19236;BME280;9752;54.270;12.470;2023-04-05T19:20:39;102283.50;;;-0.08;100.00
19236;BME280;9752;54.270;12.470;2023-04-05T19:25:41;102280.31;;;-0.20;100.00
19236;BME280;9752;54.270;12.470;2023-04-05T19:30:44;102289.88;;;-0.31;100.00
19236;BME280;9752;54.270;12.470;2023-04-05T19:35:46;102293.56;;;-0.49;100.00
19236;BME280;9752;54.270;12.470;2023-04-05T19:40:48;102299.03;;;-0.66;100.00
19236;BME280;9752;54.270;12.470;2023-04-05T19:45:55;102297.44;;;-0.79;100.00
19236;BME280;9752;54.270;12.470;2023-04-05T19:50:57;102293.50;;;-0.89;100.00
19236;BME280;9752;54.270;12.470;2023-04-05T19:55:59;102297.47;;;-0.91;100.00
19236;BME280;9752;54.270;12.470;2023-04-05T20:01:04;102293.22;;;-0.98;100.00
19236;BME280;9752;54.270;12.470;2023-04-05T20:06:08;102287.16;;;-1.19;100.00
19236;BME280;9752;54.270;12.470;2023-04-05T20:11:12;102284.72;;;-1.11;100.00
19236;BME280;9752;54.270;12.470;2023-04-05T20:16:23;102285.75;;;-1.16;100.00
19236;BME280;9752;54.270;12.470;2023-04-05T20:21:26;102286.88;;;-1.27;100.00
19236;BME280;9752;54.270;12.470;2023-04-05T20:26:28;102277.06;;;-1.57;100.00
19236;BME280;9752;54.270;12.470;2023-04-05T20:31:32;102269.13;;;-1.66;100.00
19236;BME280;9752;54.270;12.470;2023-04-05T20:36:37;102267.91;;;-1.75;100.00
19236;BME280;9752;54.270;12.470;2023-04-05T20:41:41;102258.75;;;-1.80;100.00
19236;BME280;9752;54.270;12.470;2023-04-05T20:46:45;102260.78;;;-1.90;100.00
19236;BME280;9752;54.270;12.470;2023-04-05T20:51:47;102259.53;;;-2.00;100.00
19236;BME280;9752;54.270;12.470;2023-04-05T20:56:49;102256.19;;;-2.06;100.00
19236;BME280;9752;54.270;12.470;2023-04-05T21:01:53;102249.56;;;-2.11;100.00
19236;BME280;9752;54.270;12.470;2023-04-05T21:06:55;102251.59;;;-2.21;100.00
19236;BME280;9752;54.270;12.470;2023-04-05T21:11:57;102259.94;;;-2.22;100.00
19236;BME280;9752;54.270;12.470;2023-04-05T21:17:00;102269.38;;;-2.34;100.00
19236;BME280;9752;54.270;12.470;2023-04-05T21:22:03;102268.03;;;-2.38;100.00
19236;BME280;9752;54.270;12.470;2023-04-05T21:27:06;102304.63;;;-2.43;100.00
19236;BME280;9752;54.270;12.470;2023-04-05T21:32:10;102300.25;;;-2.44;100.00
19236;BME280;9752;54.270;12.470;2023-04-05T21:37:11;102341.66;;;-2.50;100.00
19236;BME280;9752;54.270;12.470;2023-04-05T21:42:13;102343.66;;;-2.61;100.00
19236;BME280;9752;54.270;12.470;2023-04-05T21:47:16;102355.16;;;-2.57;100.00
19236;BME280;9752;54.270;12.470;2023-04-05T21:52:19;102351.06;;;-2.62;100.00
19236;BME280;9752;54.270;12.470;2023-04-05T21:57:21;102359.72;;;-2.67;100.00
19236;BME280;9752;54.270;12.470;2023-04-05T22:02:24;102364.34;;;-2.70;100.00
19236;BME280;9752;54.270;12.470;2023-04-05T22:07:26;102366.47;;;-2.73;100.00
19236;BME280;9752;54.270;12.470;2023-04-05T22:12:28;102374.06;;;-2.73;100.00
19236;BME280;9752;54.270;12.470;2023-04-05T22:17:31;102376.63;;;-2.73;100.00
19236;BME280;9752;54.270;12.470;2023-04-05T22:22:33;102384.53;;;-2.78;100.00
19236;BME280;9752;54.270;12.470;2023-04-05T22:27:35;102380.72;;;-2.68;100.00
19236;BME280;9752;54.270;12.470;2023-04-05T22:32:38;102389.19;;;-2.81;100.00
19236;BME280;9752;54.270;12.470;2023-04-05T22:37:40;102387.78;;;-2.79;100.00
19236;BME280;9752;54.270;12.470;2023-04-05T22:42:41;102392.94;;;-2.84;100.00
19236;BME280;9752;54.270;12.470;2023-04-05T22:47:47;102388.59;;;-2.91;100.00
19236;BME280;9752;54.270;12.470;2023-04-05T22:52:48;102398.47;;;-2.87;100.00
19236;BME280;9752;54.270;12.470;2023-04-05T22:57:50;102401.00;;;-2.87;100.00
19236;BME280;9752;54.270;12.470;2023-04-05T23:02:53;102406.94;;;-2.99;100.00
19236;BME280;9752;54.270;12.470;2023-04-05T23:07:56;102415.91;;;-2.77;100.00
19236;BME280;9752;54.270;12.470;2023-04-05T23:12:57;102416.09;;;-2.94;100.00
19236;BME280;9752;54.270;12.470;2023-04-05T23:18:01;102418.28;;;-3.03;100.00
19236;BME280;9752;54.270;12.470;2023-04-05T23:23:02;102423.38;;;-3.03;100.00
19236;BME280;9752;54.270;12.470;2023-04-05T23:28:05;102425.91;;;-3.03;100.00
19236;BME280;9752;54.270;12.470;2023-04-05T23:33:08;102425.97;;;-3.08;100.00
19236;BME280;9752;54.270;12.470;2023-04-05T23:38:10;102437.75;;;-3.09;100.00
19236;BME280;9752;54.270;12.470;2023-04-05T23:43:12;102438.88;;;-3.07;100.00
19236;BME280;9752;54.270;12.470;2023-04-05T23:48:16;102435.66;;;-3.11;100.00
19236;BME280;9752;54.270;12.470;2023-04-05T23:53:18;102456.03;;;-3.17;100.00
19236;BME280;9752;54.270;12.470;2023-04-05T23:58:20;102455.22;;;-3.29;100.00
